Etusivu
METAR-TAF:

METAR-TAF

Lentoasemat :

Jällivaara, Ruotsi

Jällivaaran lentoasema

Leveyspiiri: 67-09N, Pituuspiiri: 020-39E, korkeus merenpinnasta: 359 m

Tämänhetkinen sää

Tämä raportti tehtiin 20 minuuttia sitten, kello 12.20 UTC
Tuuli 1 kn eri suunnista
Lämpötila 4°C
Kosteus 75%
Ilmanpaine 1015 hPa
Näkyvyys 10 km tai enemmän

METAR: ESNG 191220Z AUTO VRB01KT 9999 NCD 04/M00 Q1015

Aika: 14:40 (12:40 UTC)

Sääennuste

Tämä raportti tehtiin 40 minuuttia sitten, kello 12.00 UTC
Ennuste voimassa 19. päivästä klo 13 UTC - 19. päivään klo 21 UTC
Tuuli 2 kn eri suunnista
Näkyvyys 10 km tai enemmän
ei pilviä alle 1500 m:ssä eikä cumulonimbus-pilviä

TAF: ESNG 191200Z 1913/1921 VRB02KT CAVOK

Säähavainnot ja -ennusteet yli 4000 lentoasemalta (METAR- ja TAF-raportit).

Käytössä olevat sääasemat on merkitty karttaan keltaisilla ja punaisilla pisteillä.

Aseta hiiri pisteen päälle nähdäksesi sääaseman nimen.

Klikkaa sitten nähdäksesi säähavainnot ja -ennusteet.

Kartan vaihtaminen: klikkaa mustalla rastilla varustettuja vihreitä pisteitä, niin voit zoomata sisään; viivalla varustettua vihreää pistettä, niin voit zoomata ulos tai vihreitä nuolia, niin pääset viereisille kartoille.


METAR-TAF: